createdAt,value
2023-03-19T00:01:56.491Z,10.60
2023-03-19T00:04:59.240Z,14.10
2023-03-19T00:08:01.802Z,9.73
2023-03-19T00:11:08.250Z,8.87
2023-03-19T00:14:12.303Z,11.10
2023-03-19T00:17:14.911Z,10.03
2023-03-19T00:20:18.214Z,10.23
2023-03-19T00:23:20.866Z,11.10
2023-03-19T00:26:23.439Z,8.17
2023-03-19T00:29:27.443Z,12.43
2023-03-19T00:32:30.186Z,9.63
2023-03-19T00:35:33.434Z,8.10
2023-03-19T00:38:36.534Z,7.87
2023-03-19T00:41:39.118Z,7.90
2023-03-19T00:44:43.052Z,9.50
2023-03-19T00:47:45.623Z,7.37
2023-03-19T00:50:48.293Z,7.13
2023-03-19T00:53:51.688Z,5.20
2023-03-19T00:56:54.283Z,5.03
2023-03-19T00:59:58.251Z,8.93
2023-03-19T01:03:01.352Z,8.03
2023-03-19T01:06:04.800Z,6.17
2023-03-19T01:09:07.358Z,5.63
2023-03-19T01:12:10.722Z,5.10
2023-03-19T01:15:15.189Z,4.97
2023-03-19T01:18:18.152Z,4.47
2023-03-19T01:21:21.812Z,8.60
2023-03-19T01:24:24.795Z,5.23
2023-03-19T01:27:27.387Z,3.17
2023-03-19T01:30:31.827Z,6.37
2023-03-19T01:33:34.588Z,4.50
2023-03-19T01:36:37.171Z,10.53
2023-03-19T01:39:39.753Z,5.47
2023-03-19T01:42:58.008Z,5.37
2023-03-19T01:46:07.275Z,4.77
2023-03-19T01:49:12.600Z,4.47
2023-03-19T01:52:16.703Z,6.90
2023-03-19T01:55:20.002Z,5.13
2023-03-19T01:58:25.573Z,5.63
2023-03-19T02:01:34.644Z,4.37
2023-03-19T02:04:39.922Z,4.47
2023-03-19T02:07:45.984Z,6.53
2023-03-19T02:10:48.926Z,3.70
2023-03-19T02:13:51.860Z,4.83
2023-03-19T02:16:56.302Z,4.97
2023-03-19T02:20:05.515Z,4.83
2023-03-19T02:23:14.916Z,3.83
2023-03-19T02:26:20.769Z,4.97
2023-03-19T02:29:23.338Z,3.87
2023-03-19T02:32:27.004Z,7.50
2023-03-19T02:35:34.432Z,4.37
2023-03-19T02:38:39.123Z,5.33
2023-03-19T02:41:43.972Z,4.87
2023-03-19T02:44:47.668Z,3.90
2023-03-19T02:47:50.565Z,2.90
2023-03-19T02:50:53.217Z,3.43
2023-03-19T02:53:55.796Z,3.00
2023-03-19T02:56:59.743Z,3.67
2023-03-19T03:00:02.364Z,5.30
2023-03-19T03:03:07.565Z,2.80
2023-03-19T03:06:10.152Z,3.60
2023-03-19T03:09:14.187Z,6.00
2023-03-19T03:12:18.189Z,4.20
2023-03-19T03:15:21.545Z,3.80
2023-03-19T03:18:24.157Z,4.13
2023-03-19T03:21:27.035Z,3.40
2023-03-19T03:24:29.801Z,4.87
2023-03-19T03:27:33.797Z,5.00
2023-03-19T03:30:36.776Z,3.63
2023-03-19T03:33:39.359Z,4.40
2023-03-19T03:36:42.103Z,5.43
2023-03-19T03:39:44.719Z,5.17
2023-03-19T03:42:48.724Z,4.83
2023-03-19T03:45:51.380Z,4.10
2023-03-19T03:48:53.969Z,5.10
2023-03-19T03:51:57.235Z,5.13
2023-03-19T03:54:59.854Z,5.27
2023-03-19T03:58:03.796Z,5.33
2023-03-19T04:01:07.089Z,5.67
2023-03-19T04:04:09.880Z,5.13
2023-03-19T04:07:13.006Z,5.97
2023-03-19T04:10:15.938Z,10.37
2023-03-19T04:13:20.293Z,6.67
2023-03-19T04:16:23.136Z,6.10
2023-03-19T04:19:25.937Z,6.50
2023-03-19T04:22:28.790Z,6.13
2023-03-19T04:25:31.587Z,5.63
2023-03-19T04:28:36.264Z,8.90
2023-03-19T04:31:39.174Z,8.13
2023-03-19T04:34:41.895Z,9.60
2023-03-19T04:37:48.407Z,9.33
2023-03-19T04:40:51.828Z,9.03
2023-03-19T04:43:55.760Z,10.60
2023-03-19T04:46:58.540Z,8.83
2023-03-19T04:50:01.136Z,10.10
2023-03-19T04:53:03.926Z,12.87
2023-03-19T04:56:07.933Z,9.87
2023-03-19T04:59:11.890Z,9.37
2023-03-19T05:02:14.489Z,10.60
2023-03-19T05:05:17.130Z,8.30
2023-03-19T05:08:19.709Z,9.30
2023-03-19T05:11:22.308Z,9.47
2023-03-19T05:14:26.350Z,11.33
2023-03-19T05:17:28.947Z,11.07
2023-03-19T05:20:31.769Z,9.33
2023-03-19T05:23:34.504Z,10.80
2023-03-19T05:26:37.517Z,12.83
2023-03-19T05:29:42.436Z,10.83
2023-03-19T05:32:46.616Z,13.40
2023-03-19T05:35:49.477Z,13.70
2023-03-19T05:38:52.090Z,14.80
2023-03-19T05:41:54.691Z,12.67
2023-03-19T05:44:58.918Z,11.80
2023-03-19T05:48:01.635Z,11.93
2023-03-19T05:51:04.710Z,13.37
2023-03-19T05:54:07.801Z,11.37
2023-03-19T05:57:10.609Z,14.30
2023-03-19T06:00:15.997Z,13.87
2023-03-19T06:03:18.781Z,15.13
2023-03-19T06:06:21.379Z,19.83
2023-03-19T06:09:23.968Z,15.67
2023-03-19T06:12:26.992Z,14.37
2023-03-19T06:15:31.428Z,18.23
2023-03-19T06:18:34.254Z,14.13
2023-03-19T06:21:36.909Z,14.00
2023-03-19T06:24:39.497Z,22.33
2023-03-19T06:27:42.075Z,14.47
2023-03-19T06:30:46.047Z,13.87
2023-03-19T06:33:49.076Z,13.93
2023-03-19T06:36:53.672Z,13.87
2023-03-19T06:39:56.260Z,14.10
2023-03-19T06:42:58.829Z,14.27
2023-03-19T06:46:02.780Z,16.43
2023-03-19T06:49:05.500Z,12.90
2023-03-19T06:52:08.442Z,13.73
2023-03-19T06:55:12.529Z,12.47
2023-03-19T06:58:15.123Z,15.47
2023-03-19T07:01:19.173Z,10.40
2023-03-19T07:04:21.899Z,13.87
2023-03-19T07:07:24.570Z,15.43
2023-03-19T07:10:27.191Z,10.40
2023-03-19T07:13:29.761Z,14.07
2023-03-19T07:16:33.953Z,13.60
2023-03-19T07:19:36.576Z,16.63
2023-03-19T07:22:39.195Z,13.63
2023-03-19T07:25:42.242Z,11.17
2023-03-19T07:28:44.873Z,9.57
2023-03-19T07:31:48.853Z,11.40
2023-03-19T07:34:51.554Z,10.93
2023-03-19T07:37:54.145Z,13.70
2023-03-19T07:41:02.497Z,12.67
2023-03-19T07:44:06.262Z,12.93
2023-03-19T07:47:22.433Z,10.57
2023-03-19T07:50:28.935Z,12.50
2023-03-19T07:53:31.529Z,13.60
2023-03-19T07:56:34.192Z,10.80
2023-03-19T07:59:36.763Z,10.53
2023-03-19T08:02:42.598Z,11.77
2023-03-19T08:05:45.216Z,9.87
2023-03-19T08:08:47.789Z,11.33
2023-03-19T08:11:50.459Z,12.10
2023-03-19T08:14:53.095Z,10.13
2023-03-19T08:18:00.363Z,13.40
2023-03-19T08:21:03.084Z,10.00
2023-03-19T08:24:06.018Z,14.00
2023-03-19T08:27:08.784Z,11.33
2023-03-19T08:30:13.358Z,10.87
2023-03-19T08:33:17.711Z,12.30
2023-03-19T08:36:20.288Z,10.30
2023-03-19T08:39:22.850Z,11.20
2023-03-19T08:42:25.793Z,9.63
2023-03-19T08:45:28.397Z,9.40
2023-03-19T08:48:32.570Z,12.70
2023-03-19T08:51:35.285Z,11.60
2023-03-19T08:54:38.034Z,12.87
2023-03-19T08:57:40.832Z,11.57
2023-03-19T09:00:43.405Z,12.20
2023-03-19T09:03:47.405Z,9.73
2023-03-19T09:06:51.544Z,11.33
2023-03-19T09:09:54.164Z,11.37
2023-03-19T09:12:56.765Z,11.07
2023-03-19T09:15:59.395Z,9.67
2023-03-19T09:19:03.399Z,9.57
2023-03-19T09:22:06.066Z,9.30
2023-03-19T09:25:09.572Z,9.93
2023-03-19T09:28:12.362Z,9.47
2023-03-19T09:31:15.222Z,9.23
2023-03-19T09:34:19.184Z,7.33
2023-03-19T09:37:21.764Z,9.87
2023-03-19T09:40:28.771Z,10.13
2023-03-19T09:43:49.743Z,7.23
2023-03-19T09:46:58.520Z,11.03
2023-03-19T09:50:06.853Z,10.10
2023-03-19T09:53:19.029Z,10.23
2023-03-19T09:56:21.754Z,8.47
2023-03-19T09:59:26.243Z,6.30
2023-03-19T10:02:43.632Z,6.97
2023-03-19T10:05:55.299Z,7.07
2023-03-19T10:09:13.317Z,9.23
2023-03-19T10:12:27.614Z,8.30
2023-03-19T10:15:32.099Z,9.23
2023-03-19T10:18:39.324Z,5.83
2023-03-19T10:21:46.948Z,6.93
2023-03-19T10:24:51.462Z,7.60
2023-03-19T10:28:00.277Z,8.83
2023-03-19T10:31:14.673Z,5.70
2023-03-19T10:34:31.139Z,6.63
2023-03-19T10:37:36.613Z,5.93
2023-03-19T10:40:49.800Z,5.00
2023-03-19T10:43:55.571Z,5.47
2023-03-19T10:47:11.758Z,5.73
2023-03-19T10:50:17.393Z,8.23
2023-03-19T10:53:31.824Z,6.88
2023-03-19T10:56:35.980Z,6.53
2023-03-19T10:59:39.250Z,6.70
2023-03-19T11:02:49.530Z,10.68
2023-03-19T11:06:05.487Z,5.75
2023-03-19T11:09:20.448Z,10.45
2023-03-19T11:12:27.203Z,5.72
2023-03-19T11:15:36.053Z,5.65
2023-03-19T11:18:40.422Z,7.00
2023-03-19T11:21:43.078Z,4.93
2023-03-19T11:24:54.253Z,5.45
2023-03-19T11:28:02.000Z,4.80
2023-03-19T11:31:13.255Z,8.93
2023-03-19T11:34:30.437Z,6.47
2023-03-19T11:37:50.201Z,6.38
2023-03-19T11:41:03.322Z,6.55
2023-03-19T11:44:08.155Z,7.32
2023-03-19T11:47:26.719Z,4.57
2023-03-19T11:50:36.923Z,6.63
2023-03-19T11:53:51.554Z,5.55
2023-03-19T11:57:00.978Z,5.25
2023-03-19T12:00:23.751Z,5.00
2023-03-19T12:03:57.187Z,4.10
2023-03-19T12:07:08.496Z,6.43
2023-03-19T12:10:28.685Z,5.57
2023-03-19T12:13:43.440Z,4.53
2023-03-19T12:16:56.950Z,5.35
2023-03-19T12:20:28.079Z,3.40
2023-03-19T12:23:47.572Z,6.40
2023-03-19T12:26:59.079Z,6.57
2023-03-19T12:30:10.234Z,8.90
2023-03-19T12:33:24.437Z,14.70
2023-03-19T12:36:33.267Z,10.20
2023-03-19T12:39:39.827Z,9.97
2023-03-19T12:42:43.533Z,10.27
2023-03-19T12:45:51.776Z,8.80
2023-03-19T12:48:59.833Z,7.60
2023-03-19T12:52:09.494Z,9.00
2023-03-19T12:55:19.538Z,7.13
2023-03-19T12:58:31.257Z,7.60
2023-03-19T13:01:40.315Z,7.67
2023-03-19T13:04:50.616Z,9.30
2023-03-19T13:07:59.065Z,7.73
2023-03-19T13:11:04.876Z,13.20
2023-03-19T13:14:14.155Z,8.07
2023-03-19T13:17:27.227Z,9.30
2023-03-19T13:20:41.414Z,10.17
2023-03-19T13:23:45.597Z,5.63
2023-03-19T13:26:49.519Z,9.83
2023-03-19T13:30:01.992Z,10.37
2023-03-19T13:33:07.218Z,6.10
2023-03-19T13:36:15.506Z,8.47
2023-03-19T13:39:21.397Z,5.60
2023-03-19T13:42:38.279Z,8.50
2023-03-19T13:45:41.128Z,10.20
2023-03-19T13:48:52.764Z,7.50
2023-03-19T13:51:59.646Z,7.30
2023-03-19T13:55:32.839Z,9.77
2023-03-19T13:58:51.957Z,7.73
2023-03-19T14:01:55.234Z,7.87
2023-03-19T14:05:02.925Z,8.93
2023-03-19T14:08:18.354Z,7.00
2023-03-19T14:11:25.545Z,7.57
2023-03-19T14:14:28.195Z,6.53
2023-03-19T14:17:34.362Z,10.73
2023-03-19T14:20:48.367Z,10.17
2023-03-19T14:23:57.594Z,13.17
2023-03-19T14:27:03.672Z,9.30
2023-03-19T14:30:15.643Z,5.70
2023-03-19T14:33:21.085Z,9.80
2023-03-19T14:36:25.909Z,10.10
2023-03-19T14:39:31.280Z,9.77
2023-03-19T14:42:40.993Z,8.20
2023-03-19T14:45:50.404Z,12.63
2023-03-19T14:49:18.828Z,8.43
2023-03-19T14:52:24.344Z,9.30
2023-03-19T14:55:35.133Z,7.83
2023-03-19T14:58:37.881Z,6.47
2023-03-19T15:01:42.279Z,6.00
2023-03-19T15:04:46.377Z,6.50
2023-03-19T15:07:54.221Z,9.13
2023-03-19T15:11:08.691Z,5.53
2023-03-19T15:14:26.228Z,6.60
2023-03-19T15:17:30.790Z,5.90
2023-03-19T15:20:38.633Z,6.87
2023-03-19T15:23:46.199Z,6.70
2023-03-19T15:26:48.970Z,5.63
2023-03-19T15:29:52.271Z,4.23
2023-03-19T15:33:10.492Z,4.77
2023-03-19T15:36:20.488Z,5.67
2023-03-19T15:39:27.633Z,4.63
2023-03-19T15:42:31.188Z,5.00
2023-03-19T15:45:35.531Z,7.27
2023-03-19T15:48:44.875Z,4.23
2023-03-19T15:51:51.556Z,5.17
2023-03-19T15:54:56.502Z,5.40
2023-03-19T15:58:06.380Z,5.47
2023-03-19T16:01:11.137Z,9.17
2023-03-19T16:04:20.762Z,4.23
2023-03-19T16:07:34.064Z,5.90
2023-03-19T16:10:42.881Z,7.73
2023-03-19T16:13:56.924Z,7.60
2023-03-19T16:17:04.897Z,8.97
2023-03-19T16:20:14.743Z,11.10
2023-03-19T16:23:19.392Z,15.10
2023-03-19T16:26:26.105Z,14.20
2023-03-19T16:29:30.709Z,13.80
2023-03-19T16:32:33.643Z,14.87
2023-03-19T16:35:37.826Z,14.43
2023-03-19T16:38:45.405Z,16.53
2023-03-19T16:42:23.631Z,14.87
2023-03-19T16:45:28.046Z,13.07
2023-03-19T16:48:30.617Z,14.20
2023-03-19T16:51:33.871Z,21.40
2023-03-19T16:54:36.667Z,16.53
2023-03-19T16:57:40.619Z,16.67
2023-03-19T17:00:44.378Z,17.43
2023-03-19T17:03:48.117Z,17.63
2023-03-19T17:06:51.070Z,17.20
2023-03-19T17:09:53.700Z,15.50
2023-03-19T17:12:58.219Z,17.50
2023-03-19T17:16:02.741Z,15.63
2023-03-19T17:19:11.080Z,17.83
2023-03-19T17:22:14.504Z,18.50
2023-03-19T17:25:19.139Z,16.00
2023-03-19T17:28:23.224Z,17.03
2023-03-19T17:31:27.956Z,17.10
2023-03-19T17:34:31.859Z,17.90
2023-03-19T17:37:35.801Z,20.60
2023-03-19T17:40:38.523Z,19.47
2023-03-19T17:43:42.640Z,18.70
2023-03-19T17:46:48.436Z,17.27
2023-03-19T17:49:51.078Z,21.70
2023-03-19T17:52:53.716Z,23.27
2023-03-19T17:55:56.344Z,22.73
2023-03-19T17:59:00.288Z,23.17
2023-03-19T18:02:02.889Z,22.27
2023-03-19T18:05:07.328Z,21.33
2023-03-19T18:08:15.648Z,21.30
2023-03-19T18:11:18.736Z,23.27
2023-03-19T18:14:22.684Z,24.77
2023-03-19T18:17:25.288Z,21.90
2023-03-19T18:20:30.937Z,25.67
2023-03-19T18:23:33.535Z,23.33
2023-03-19T18:26:36.095Z,25.10
2023-03-19T18:29:40.070Z,22.50
2023-03-19T18:32:45.561Z,25.50
2023-03-19T18:35:48.346Z,25.53
2023-03-19T18:38:51.062Z,24.80
2023-03-19T18:41:53.705Z,26.70
2023-03-19T18:44:57.682Z,24.40
2023-03-19T18:48:00.581Z,21.70
2023-03-19T18:51:03.360Z,23.87
2023-03-19T18:54:06.119Z,23.20
2023-03-19T18:57:12.480Z,23.63
2023-03-19T19:00:19.835Z,25.83
2023-03-19T19:03:29.255Z,23.30
2023-03-19T19:06:46.787Z,26.07
2023-03-19T19:09:50.214Z,26.00
2023-03-19T19:12:56.014Z,27.73
2023-03-19T19:16:00.312Z,25.50
2023-03-19T19:19:03.224Z,28.73
2023-03-19T19:22:06.493Z,24.90
2023-03-19T19:25:09.518Z,24.90
2023-03-19T19:28:19.233Z,24.73
2023-03-19T19:31:26.710Z,26.97
2023-03-19T19:34:29.341Z,25.70
2023-03-19T19:37:32.008Z,26.53
2023-03-19T19:40:34.822Z,27.07
2023-03-19T19:43:38.187Z,27.07
2023-03-19T19:46:42.155Z,25.50
2023-03-19T19:49:45.514Z,27.53
2023-03-19T19:52:48.631Z,24.67
2023-03-19T19:55:51.235Z,27.73
2023-03-19T19:58:56.870Z,25.43
2023-03-19T20:02:00.928Z,29.07
2023-03-19T20:05:04.209Z,27.73
2023-03-19T20:08:07.189Z,28.73
2023-03-19T20:11:16.914Z,26.67
2023-03-19T20:14:19.517Z,32.17
2023-03-19T20:17:23.850Z,28.37
2023-03-19T20:20:28.114Z,33.63
2023-03-19T20:23:30.716Z,25.83
2023-03-19T20:26:34.298Z,26.90
2023-03-19T20:29:38.664Z,29.87
2023-03-19T20:32:42.736Z,27.60
2023-03-19T20:35:46.162Z,30.87
2023-03-19T20:38:48.733Z,26.93
2023-03-19T20:41:51.597Z,27.20
2023-03-19T20:44:57.971Z,31.13
2023-03-19T20:48:02.266Z,31.40
2023-03-19T20:51:05.212Z,32.50
2023-03-19T20:54:07.830Z,29.00
2023-03-19T20:57:14.605Z,28.53
2023-03-19T21:00:24.649Z,30.47
2023-03-19T21:03:30.759Z,34.63
2023-03-19T21:06:49.862Z,33.87
2023-03-19T21:09:55.010Z,31.90
2023-03-19T21:12:58.120Z,33.43
2023-03-19T21:16:01.906Z,33.83
2023-03-19T21:19:06.494Z,39.33
2023-03-19T21:22:14.949Z,43.30
2023-03-19T21:25:21.395Z,46.47
2023-03-19T21:28:27.227Z,45.30
2023-03-19T21:31:29.907Z,47.50
2023-03-19T21:34:33.896Z,49.93
2023-03-19T21:37:36.498Z,50.33
2023-03-19T21:40:39.220Z,52.97
2023-03-19T21:43:44.907Z,48.60
2023-03-19T21:46:49.283Z,53.40
2023-03-19T21:49:53.331Z,53.90
2023-03-19T21:53:00.744Z,53.73
2023-03-19T21:56:04.040Z,53.13
2023-03-19T21:59:13.840Z,49.70
2023-03-19T22:02:41.616Z,50.90
2023-03-19T22:05:46.661Z,58.50
2023-03-19T22:08:49.867Z,51.83
2023-03-19T22:11:52.500Z,45.77
2023-03-19T22:14:55.536Z,46.90
2023-03-19T22:17:59.792Z,40.07
2023-03-19T22:21:03.732Z,37.13
2023-03-19T22:24:06.838Z,37.70
2023-03-19T22:27:16.476Z,37.50
2023-03-19T22:30:28.052Z,31.87
2023-03-19T22:33:30.748Z,34.47
2023-03-19T22:36:34.693Z,34.23
2023-03-19T22:39:37.272Z,38.07
2023-03-19T22:42:40.550Z,33.13
2023-03-19T22:45:43.379Z,36.40
2023-03-19T22:48:49.965Z,33.60
2023-03-19T22:51:53.925Z,33.93
2023-03-19T22:54:56.499Z,33.10
2023-03-19T22:57:59.076Z,35.47
2023-03-19T23:01:01.770Z,36.03
2023-03-19T23:04:17.682Z,37.77
2023-03-19T23:07:21.611Z,33.30
2023-03-19T23:10:26.707Z,36.87
2023-03-19T23:13:29.383Z,35.60
2023-03-19T23:16:32.116Z,35.43
2023-03-19T23:19:36.280Z,38.87
2023-03-19T23:22:40.299Z,37.00
2023-03-19T23:25:43.939Z,37.20
2023-03-19T23:28:46.578Z,40.67
2023-03-19T23:31:49.557Z,36.67
2023-03-19T23:35:00.640Z,39.93
2023-03-19T23:38:05.391Z,34.50
2023-03-19T23:41:08.320Z,42.27
2023-03-19T23:44:14.076Z,40.23
2023-03-19T23:47:16.896Z,41.47
2023-03-19T23:50:19.489Z,39.93
2023-03-19T23:53:27.117Z,41.10
2023-03-19T23:56:29.768Z,43.57
2023-03-19T23:59:35.604Z,43.77
